This is the latest recevied weather packets stored in our database for station/object IW0HP-3. If no packets are shown the sender has not sent any weather packets the latest 10 day(s).
| Time | Temp. | Humidity | Pressure | Rain* | Wind** | Luminosity | Snow |
|---|---|---|---|---|---|---|---|
| 1777496202 | 19.44° C | 39% | 1015.9 hPa | - | - | - | - |
| 1777494997 | 19.44° C | 39% | 1015.9 hPa | - | - | - | - |
| 1777493793 | 20° C | 38% | 1016.1 hPa | - | - | - | - |
| 1777492588 | 20° C | 38% | 1016.1 hPa | - | - | - | - |
| 1777491384 | 20° C | 38% | 1015.8 hPa | - | - | - | - |
| 1777490180 | 20° C | 38% | 1015.7 hPa | - | - | - | - |
| 1777486566 | 20.56° C | 34% | 1015.8 hPa | - | - | - | - |
| 1777485361 | 20.56° C | 33% | 1016 hPa | - | - | - | - |
| 1777484157 | 21.11° C | 31% | 1015.9 hPa | - | - | - | - |
| 1777482952 | 21.67° C | 28% | 1016.1 hPa | - | - | - | - |
| 1777481747 | 22.22° C | 27% | 1016 hPa | - | - | - | - |
| 1777480543 | 23.33° C | 25% | 1016.1 hPa | - | - | - | - |
| 1777478134 | 23.89° C | 26% | 1015.7 hPa | - | - | - | - |
| 1777475725 | 24.44° C | 25% | 1015.7 hPa | - | - | - | - |
| 1777474521 | 23.89° C | 27% | 1015.4 hPa | - | - | - | - |
| 1777472112 | 23.89° C | 26% | 1015.7 hPa | - | - | - | - |
| 1777470907 | 23.89° C | 25% | 1016.1 hPa | - | - | - | - |
| 1777469702 | 23.33° C | 24% | 1016.7 hPa | - | - | - | - |
| 1777468498 | 23.33° C | 27% | 1016.4 hPa | - | - | - | - |
| 1777467293 | 23.33° C | 27% | 1016.5 hPa | - | - | - | - |
| 1777466089 | 23.33° C | 26% | 1016.8 hPa | - | - | - | - |
| 1777462473 | 22.22° C | 28% | 1016.9 hPa | - | - | - | - |
| 1777461268 | 22.22° C | 31% | 1016.7 hPa | - | - | - | - |
| 1777460063 | 22.22° C | 34% | 1016.6 hPa | - | - | - | - |
| 1777457653 | 21.11° C | 34% | 1016.8 hPa | - | - | - | - |
* Rain since midnight (hover to see other rain measurements)
** Current wind speed in m/s (hover to see current wind gust speed)